Time;durP1;ratioP1;P1;durP2;ratioP2;P2;SDS_P1;SDS_P2;PMS_P1;PMS_P2;Temp;Humidity;BMP_temperature;BMP_pressure;BME280_temperature;BME280_humidity;BME280_pressure;Samples;Min_cycle;Max_cycle;Signal;HPM_P1;HPM_P2
2023/07/29 00:01:22;;;;;;;3.53;3.22;;;;;;;;;;5069578;28;20390;-83
2023/07/29 00:03:48;;;;;;;3.67;3.38;;;;;;;;;;5067290;28;20397;-83
2023/07/29 00:06:14;;;;;;;3.67;3.38;;;;;;;;;;5069274;28;20392;-83
2023/07/29 00:08:40;;;;;;;6.20;5.60;;;;;;;;;;5069604;28;20432;-83
2023/07/29 00:11:06;;;;;;;4.07;3.78;;;;;;;;;;5069132;28;20386;-83
2023/07/29 00:13:32;;;;;;;3.75;3.30;;;;;;;;;;5068515;28;21011;-83
2023/07/29 00:15:58;;;;;;;3.58;3.28;;;;;;;;;;5068686;28;20407;-83
2023/07/29 00:18:24;;;;;;;3.30;3.00;;;;;;;;;;5068952;28;20823;-83
2023/07/29 00:20:50;;;;;;;3.42;3.15;;;;;;;;;;5068850;28;20480;-83
2023/07/29 00:23:19;;;;;;;3.28;3.00;;;;;;;;;;5069305;28;20386;-83
2023/07/29 00:25:45;;;;;;;3.38;2.70;;;;;;;;;;5094764;22;20439;-81
2023/07/29 00:28:11;;;;;;;2.92;2.58;;;;;;;;;;5099315;28;20397;-81
2023/07/29 00:30:37;;;;;;;4.05;2.85;;;;;;;;;;5101437;28;20714;-81
2023/07/29 00:33:03;;;;;;;3.55;3.00;;;;;;;;;;5119167;28;20392;-81
2023/07/29 00:35:29;;;;;;;3.13;2.88;;;;;;;;;;5119936;28;20418;-81
2023/07/29 00:37:55;;;;;;;3.40;3.20;;;;;;;;;;5115907;28;20382;-81
2023/07/29 00:40:22;;;;;;;3.35;3.08;;;;;;;;;;5110911;28;20785;-81
2023/07/29 00:42:49;;;;;;;2.83;2.60;;;;;;;;;;5117644;28;20419;-80
2023/07/29 00:45:15;;;;;;;3.25;2.80;;;;;;;;;;5120059;28;20368;-82
2023/07/29 00:47:41;;;;;;;2.90;2.70;;;;;;;;;;5121641;28;20379;-81
2023/07/29 00:50:08;;;;;;;3.50;3.00;;;;;;;;;;5120842;28;20714;-81
2023/07/29 00:52:34;;;;;;;3.15;2.85;;;;;;;;;;5120109;28;20400;-80
2023/07/29 00:55:00;;;;;;;2.70;2.50;;;;;;;;;;5120752;28;20423;-81
2023/07/29 00:57:26;;;;;;;3.78;3.00;;;;;;;;;;5120804;28;20388;-82
2023/07/29 00:59:52;;;;;;;3.25;2.63;;;;;;;;;;5120677;28;20429;-81
2023/07/29 01:02:18;;;;;;;3.13;2.83;;;;;;;;;;5120300;28;20384;-81
2023/07/29 01:04:44;;;;;;;3.37;2.97;;;;;;;;;;5120027;28;20521;-82
2023/07/29 01:07:22;;;;;;;3.10;2.90;;;;;;;;;;5113723;28;20421;-81
2023/07/29 01:10:14;;;;;;;3.37;2.80;;;;;;;;;;5113991;28;20468;-81
2023/07/29 01:12:43;;;;;;;3.03;2.72;;;;;;;;;;5093449;28;20489;-81
2023/07/29 01:15:12;;;;;;;2.83;2.63;;;;;;;;;;5119812;28;20460;-81
2023/07/29 01:17:42;;;;;;;2.83;2.63;;;;;;;;;;5120196;28;20384;-81
2023/07/29 01:20:09;;;;;;;2.95;2.65;;;;;;;;;;5116465;28;20384;-81
2023/07/29 01:22:36;;;;;;;3.35;3.08;;;;;;;;;;5119550;28;20372;-82
2023/07/29 01:25:03;;;;;;;3.08;2.80;;;;;;;;;;5113318;28;20423;-81
2023/07/29 01:27:29;;;;;;;3.35;2.70;;;;;;;;;;5118442;28;20384;-81
2023/07/29 01:29:56;;;;;;;2.78;2.50;;;;;;;;;;5120181;28;20416;-81
2023/07/29 01:32:42;;;;;;;2.90;2.60;;;;;;;;;;5120018;28;20744;-81
2023/07/29 01:35:14;;;;;;;2.80;2.60;;;;;;;;;;5106296;28;20457;-81
2023/07/29 01:37:41;;;;;;;2.72;2.53;;;;;;;;;;5107920;28;20381;-81
2023/07/29 01:40:09;;;;;;;2.70;2.50;;;;;;;;;;5108672;28;20382;-81
2023/07/29 01:42:35;;;;;;;2.90;2.70;;;;;;;;;;5117366;28;20429;-81
2023/07/29 01:45:01;;;;;;;3.33;3.03;;;;;;;;;;5117643;28;20463;-82
2023/07/29 01:47:27;;;;;;;3.33;3.03;;;;;;;;;;5109545;27;20404;-82
2023/07/29 01:49:53;;;;;;;3.15;2.85;;;;;;;;;;5118703;28;20391;-82
2023/07/29 01:52:19;;;;;;;4.57;3.00;;;;;;;;;;5116632;28;20956;-82
2023/07/29 01:54:45;;;;;;;3.13;2.80;;;;;;;;;;5118239;28;20538;-82
2023/07/29 01:57:11;;;;;;;3.20;2.90;;;;;;;;;;5118848;28;20718;-82
2023/07/29 01:59:37;;;;;;;3.22;2.72;;;;;;;;;;5118745;28;20384;-82
2023/07/29 02:02:03;;;;;;;4.30;3.00;;;;;;;;;;5119210;28;20755;-82
2023/07/29 02:04:29;;;;;;;3.03;2.83;;;;;;;;;;5118851;28;20376;-81
2023/07/29 02:06:55;;;;;;;3.00;2.50;;;;;;;;;;5118733;28;20393;-82
2023/07/29 02:09:21;;;;;;;3.47;3.00;;;;;;;;;;5118746;28;20416;-82
2023/07/29 02:11:47;;;;;;;3.40;2.60;;;;;;;;;;5118006;28;20761;-81
2023/07/29 02:14:13;;;;;;;3.20;3.00;;;;;;;;;;5117067;28;20437;-82
2023/07/29 02:16:39;;;;;;;2.88;2.60;;;;;;;;;;5118670;28;20424;-82
2023/07/29 02:19:05;;;;;;;3.17;2.88;;;;;;;;;;5117874;28;20372;-82
2023/07/29 02:21:31;;;;;;;3.65;3.35;;;;;;;;;;5118149;28;20921;-82
2023/07/29 02:23:57;;;;;;;3.10;2.80;;;;;;;;;;5117632;28;20387;-81
2023/07/29 02:26:23;;;;;;;3.30;2.90;;;;;;;;;;5118446;28;20384;-82
2023/07/29 02:28:49;;;;;;;3.17;2.95;;;;;;;;;;5118350;28;20387;-81
2023/07/29 02:31:20;;;;;;;3.00;2.80;;;;;;;;;;5118108;28;20387;-81
2023/07/29 02:33:47;;;;;;;3.67;3.00;;;;;;;;;;5118003;28;20921;-81
2023/07/29 02:36:13;;;;;;;3.00;2.80;;;;;;;;;;5118332;28;20717;-81
2023/07/29 02:38:40;;;;;;;3.58;2.83;;;;;;;;;;5118076;28;20724;-81
2023/07/29 02:41:08;;;;;;;3.03;2.80;;;;;;;;;;5117606;28;20411;-81
2023/07/29 02:43:34;;;;;;;3.35;3.00;;;;;;;;;;5117897;28;20471;-81
2023/07/29 02:46:00;;;;;;;3.10;2.60;;;;;;;;;;5118080;28;20380;-81
2023/07/29 02:48:26;;;;;;;3.00;2.70;;;;;;;;;;5117707;28;20372;-82
2023/07/29 02:50:52;;;;;;;3.70;2.88;;;;;;;;;;5117696;28;20453;-81
2023/07/29 02:53:18;;;;;;;3.03;2.50;;;;;;;;;;5118196;28;20419;-82
2023/07/29 02:55:44;;;;;;;3.95;2.50;;;;;;;;;;5117441;28;20392;-82
2023/07/29 02:58:10;;;;;;;3.58;3.00;;;;;;;;;;5118246;28;20399;-81
2023/07/29 03:00:36;;;;;;;3.30;2.38;;;;;;;;;;5117973;28;20853;-81
2023/07/29 03:03:02;;;;;;;3.30;2.53;;;;;;;;;;5117180;28;20489;-81
2023/07/29 03:05:28;;;;;;;3.13;2.50;;;;;;;;;;5120833;28;20895;-81
2023/07/29 03:07:54;;;;;;;2.80;2.60;;;;;;;;;;5120909;28;20449;-81
2023/07/29 03:10:20;;;;;;;2.70;2.42;;;;;;;;;;5120078;28;20380;-81
2023/07/29 03:12:46;;;;;;;2.90;2.60;;;;;;;;;;5114843;28;20373;-82
2023/07/29 03:15:13;;;;;;;2.80;2.60;;;;;;;;;;5121045;28;20753;-81
2023/07/29 03:17:38;;;;;;;4.30;2.60;;;;;;;;;;5121465;28;20395;-82
2023/07/29 03:20:05;;;;;;;2.80;2.35;;;;;;;;;;5122082;28;20384;-81
2023/07/29 03:22:31;;;;;;;3.50;2.92;;;;;;;;;;5121170;28;20426;-81
2023/07/29 03:24:57;;;;;;;3.47;3.13;;;;;;;;;;5121173;28;20392;-81
2023/07/29 03:27:23;;;;;;;4.93;3.00;;;;;;;;;;5117934;28;20465;-81
2023/07/29 03:29:49;;;;;;;2.92;2.50;;;;;;;;;;5113845;28;20381;-81
2023/07/29 03:32:15;;;;;;;2.75;2.55;;;;;;;;;;5120991;28;20488;-82
2023/07/29 03:34:41;;;;;;;3.00;2.80;;;;;;;;;;5120533;28;20400;-81
2023/07/29 03:37:07;;;;;;;2.63;2.42;;;;;;;;;;5120723;28;20848;-81
2023/07/29 03:39:33;;;;;;;2.72;2.50;;;;;;;;;;5120477;28;20391;-81
2023/07/29 03:41:59;;;;;;;3.45;2.72;;;;;;;;;;5120626;28;20376;-81
2023/07/29 03:44:25;;;;;;;3.00;2.67;;;;;;;;;;5120342;28;20375;-81
2023/07/29 03:46:51;;;;;;;3.40;2.70;;;;;;;;;;5121245;28;20765;-82
2023/07/29 03:49:17;;;;;;;3.58;2.55;;;;;;;;;;5120925;28;20369;-81
2023/07/29 03:51:43;;;;;;;2.70;2.50;;;;;;;;;;5120779;28;20907;-82
2023/07/29 03:54:09;;;;;;;4.10;3.00;;;;;;;;;;5120432;28;20400;-81
2023/07/29 03:56:35;;;;;;;4.30;3.70;;;;;;;;;;5102052;28;20749;-81
2023/07/29 03:59:05;;;;;;;3.65;3.35;;;;;;;;;;5120357;28;20459;-81
2023/07/29 04:01:32;;;;;;;3.47;3.28;;;;;;;;;;5120760;28;20384;-81
2023/07/29 04:03:58;;;;;;;3.45;3.22;;;;;;;;;;5120518;28;20372;-81
2023/07/29 04:06:24;;;;;;;4.63;3.03;;;;;;;;;;5120219;28;20464;-81
2023/07/29 04:08:50;;;;;;;3.20;3.00;;;;;;;;;;5119862;28;20849;-81
2023/07/29 04:11:16;;;;;;;4.28;2.67;;;;;;;;;;5119982;28;20922;-81
2023/07/29 04:13:42;;;;;;;3.70;3.40;;;;;;;;;;5120333;28;20408;-81
2023/07/29 04:16:08;;;;;;;3.63;3.33;;;;;;;;;;5119965;28;20449;-81
2023/07/29 04:18:34;;;;;;;3.20;2.90;;;;;;;;;;5118139;28;20372;-81
2023/07/29 04:21:00;;;;;;;3.72;3.42;;;;;;;;;;5119985;28;20469;-81
2023/07/29 04:23:26;;;;;;;4.30;3.47;;;;;;;;;;5119234;28;20378;-81
2023/07/29 04:25:52;;;;;;;3.83;3.40;;;;;;;;;;5120301;28;20725;-81
2023/07/29 04:28:18;;;;;;;4.25;3.50;;;;;;;;;;5120355;28;20406;-81
2023/07/29 04:30:44;;;;;;;5.53;4.07;;;;;;;;;;5119421;28;20384;-82
2023/07/29 04:33:10;;;;;;;4.00;3.70;;;;;;;;;;5119643;28;20380;-82
2023/07/29 04:35:36;;;;;;;6.22;4.30;;;;;;;;;;5119506;28;20495;-82
2023/07/29 04:38:02;;;;;;;4.85;4.45;;;;;;;;;;5119754;28;20392;-81
2023/07/29 04:40:28;;;;;;;5.45;4.90;;;;;;;;;;5118846;28;20373;-82
2023/07/29 04:42:54;;;;;;;4.88;4.47;;;;;;;;;;5119365;28;20384;-82
2023/07/29 04:45:20;;;;;;;4.55;4.15;;;;;;;;;;5119199;28;20387;-81
2023/07/29 04:47:46;;;;;;;4.20;3.90;;;;;;;;;;5119848;28;20372;-81
2023/07/29 04:50:12;;;;;;;4.88;4.47;;;;;;;;;;5119440;28;20380;-81
2023/07/29 04:52:38;;;;;;;6.07;4.60;;;;;;;;;;5121532;28;20387;-82
2023/07/29 04:55:04;;;;;;;4.68;4.28;;;;;;;;;;5121412;28;20415;-82
2023/07/29 04:57:30;;;;;;;5.47;4.30;;;;;;;;;;5121014;28;20418;-82
2023/07/29 04:59:56;;;;;;;4.40;4.00;;;;;;;;;;5121024;28;20741;-81
2023/07/29 05:02:22;;;;;;;4.13;3.58;;;;;;;;;;5121167;28;20383;-81
2023/07/29 05:04:48;;;;;;;3.90;3.60;;;;;;;;;;5120500;28;20778;-82
2023/07/29 05:07:14;;;;;;;4.50;4.15;;;;;;;;;;5120806;28;20472;-82
2023/07/29 05:09:40;;;;;;;4.28;3.88;;;;;;;;;;5118871;28;20873;-82
2023/07/29 05:12:06;;;;;;;5.28;4.03;;;;;;;;;;5107818;28;20387;-82
2023/07/29 05:14:32;;;;;;;5.10;4.70;;;;;;;;;;5122893;28;20447;-82
2023/07/29 05:16:58;;;;;;;4.82;4.43;;;;;;;;;;5123766;28;20414;-81
2023/07/29 05:19:24;;;;;;;4.93;4.50;;;;;;;;;;5120249;28;20376;-82
2023/07/29 05:21:50;;;;;;;4.88;4.40;;;;;;;;;;5117390;28;20376;-82
2023/07/29 05:24:16;;;;;;;5.35;4.85;;;;;;;;;;5119574;28;20391;-82
2023/07/29 05:26:42;;;;;;;5.10;4.60;;;;;;;;;;5116444;28;20376;-82
2023/07/29 05:29:08;;;;;;;5.40;4.70;;;;;;;;;;5119137;28;20376;-81
2023/07/29 05:31:34;;;;;;;4.88;4.40;;;;;;;;;;5118430;28;20403;-81
2023/07/29 05:34:00;;;;;;;5.30;4.82;;;;;;;;;;5118120;28;21049;-82
2023/07/29 05:36:26;;;;;;;5.03;4.55;;;;;;;;;;5119131;28;20734;-82
2023/07/29 05:38:52;;;;;;;5.30;4.90;;;;;;;;;;5099218;28;20865;-81
2023/07/29 05:41:18;;;;;;;6.13;5.53;;;;;;;;;;5117909;28;20384;-81
2023/07/29 05:43:45;;;;;;;5.60;5.10;;;;;;;;;;5118114;28;20452;-81
2023/07/29 05:46:11;;;;;;;4.45;4.05;;;;;;;;;;5118094;28;20389;-81
2023/07/29 05:48:37;;;;;;;5.13;4.57;;;;;;;;;;5118982;28;20466;-81
2023/07/29 05:51:05;;;;;;;4.90;4.50;;;;;;;;;;5118409;28;20384;-81
2023/07/29 05:53:31;;;;;;;6.82;6.13;;;;;;;;;;5118501;28;20410;-81
2023/07/29 05:55:57;;;;;;;5.80;5.30;;;;;;;;;;5118261;28;20515;-82
2023/07/29 05:58:23;;;;;;;5.20;4.70;;;;;;;;;;5104201;28;20861;-81
2023/07/29 06:00:49;;;;;;;5.20;4.70;;;;;;;;;;5118215;28;20391;-81
2023/07/29 06:03:15;;;;;;;4.80;4.35;;;;;;;;;;5117711;28;20400;-81
2023/07/29 06:05:41;;;;;;;4.40;4.00;;;;;;;;;;5118351;28;20388;-82
2023/07/29 06:08:08;;;;;;;4.32;3.92;;;;;;;;;;5118402;28;20372;-82
2023/07/29 06:10:34;;;;;;;4.10;3.80;;;;;;;;;;5116471;28;20741;-82
2023/07/29 06:13:00;;;;;;;4.15;3.80;;;;;;;;;;5117729;28;20425;-81
2023/07/29 06:15:26;;;;;;;4.50;4.15;;;;;;;;;;5118116;28;20495;-82
2023/07/29 06:17:52;;;;;;;4.43;4.03;;;;;;;;;;5117969;28;20467;-82
2023/07/29 06:20:18;;;;;;;4.50;4.10;;;;;;;;;;5117545;28;20392;-82
2023/07/29 06:22:44;;;;;;;4.85;4.32;;;;;;;;;;5116054;28;20833;-82
2023/07/29 06:25:10;;;;;;;3.85;3.55;;;;;;;;;;5115900;28;20384;-82
2023/07/29 06:27:36;;;;;;;3.70;3.40;;;;;;;;;;5117193;28;20409;-82
2023/07/29 06:30:02;;;;;;;4.50;4.10;;;;;;;;;;5114784;28;20389;-81
2023/07/29 06:32:28;;;;;;;4.00;3.60;;;;;;;;;;5114650;28;20380;-82
2023/07/29 06:34:54;;;;;;;3.70;3.40;;;;;;;;;;5114411;28;20477;-81
2023/07/29 06:37:21;;;;;;;3.85;3.55;;;;;;;;;;5115902;28;20404;-81
2023/07/29 06:39:47;;;;;;;3.90;3.60;;;;;;;;;;5119265;28;20375;-81
2023/07/29 06:42:13;;;;;;;4.50;4.10;;;;;;;;;;5121006;28;20376;-82
2023/07/29 06:44:40;;;;;;;4.22;3.83;;;;;;;;;;5121966;28;20405;-82
2023/07/29 06:47:06;;;;;;;4.30;3.90;;;;;;;;;;5122327;28;20714;-82
2023/07/29 06:49:32;;;;;;;4.20;3.55;;;;;;;;;;5121597;28;20388;-82
2023/07/29 06:51:58;;;;;;;4.22;3.92;;;;;;;;;;5121275;28;20445;-82
2023/07/29 06:54:27;;;;;;;4.63;3.90;;;;;;;;;;5121430;28;20440;-82
2023/07/29 06:56:53;;;;;;;4.20;3.80;;;;;;;;;;5102990;28;20773;-82
2023/07/29 06:59:19;;;;;;;4.35;3.97;;;;;;;;;;5115518;28;20839;-82
2023/07/29 07:01:45;;;;;;;4.18;3.78;;;;;;;;;;5111563;27;20388;-82
2023/07/29 07:04:11;;;;;;;4.10;3.78;;;;;;;;;;5118311;28;20871;-82
2023/07/29 07:06:37;;;;;;;5.05;4.07;;;;;;;;;;5097942;28;20380;-82
2023/07/29 07:09:03;;;;;;;3.90;3.60;;;;;;;;;;5110049;28;20396;-81
2023/07/29 07:11:29;;;;;;;3.92;3.63;;;;;;;;;;5109708;28;20415;-81
2023/07/29 07:13:55;;;;;;;4.03;3.73;;;;;;;;;;5105936;28;20423;-82
2023/07/29 07:16:21;;;;;;;4.05;3.75;;;;;;;;;;5120685;28;20384;-81
2023/07/29 07:18:47;;;;;;;4.40;4.00;;;;;;;;;;5119066;28;20368;-81
2023/07/29 07:21:13;;;;;;;4.03;3.63;;;;;;;;;;5120924;28;20384;-82
2023/07/29 07:23:39;;;;;;;3.83;3.53;;;;;;;;;;5121143;28;20390;-81
2023/07/29 07:26:05;;;;;;;4.22;3.83;;;;;;;;;;5116325;28;20392;-81
2023/07/29 07:28:31;;;;;;;4.15;3.85;;;;;;;;;;5117009;28;20385;-82
2023/07/29 07:30:57;;;;;;;4.05;3.75;;;;;;;;;;5102301;28;20393;-81
2023/07/29 07:33:23;;;;;;;4.70;4.30;;;;;;;;;;5115223;28;20710;-81
2023/07/29 07:35:49;;;;;;;4.38;3.97;;;;;;;;;;5092606;27;20401;-81
2023/07/29 07:38:15;;;;;;;3.80;3.50;;;;;;;;;;5120264;28;20377;-81
2023/07/29 07:40:41;;;;;;;4.03;3.73;;;;;;;;;;5088900;28;20437;-83
2023/07/29 07:43:07;;;;;;;4.30;3.90;;;;;;;;;;5119635;28;20759;-82
2023/07/29 07:45:33;;;;;;;3.92;3.63;;;;;;;;;;5115033;28;20378;-80
2023/07/29 07:47:59;;;;;;;3.70;3.40;;;;;;;;;;5115693;27;20713;-83
2023/07/29 07:50:25;;;;;;;4.00;3.70;;;;;;;;;;5118572;28;20437;-83
2023/07/29 07:52:51;;;;;;;4.10;3.80;;;;;;;;;;5115980;28;20385;-82
2023/07/29 07:55:17;;;;;;;4.18;3.88;;;;;;;;;;5119768;28;20408;-82
2023/07/29 07:57:43;;;;;;;4.20;3.90;;;;;;;;;;5120002;28;20384;-81
2023/07/29 08:00:09;;;;;;;3.80;3.50;;;;;;;;;;5112723;28;20413;-81
2023/07/29 08:02:35;;;;;;;4.25;3.95;;;;;;;;;;5104571;28;20421;-81
2023/07/29 08:05:01;;;;;;;4.10;3.80;;;;;;;;;;5119780;28;20383;-81
2023/07/29 08:07:27;;;;;;;4.10;3.70;;;;;;;;;;5113149;27;20375;-82
2023/07/29 08:09:53;;;;;;;4.20;3.80;;;;;;;;;;5118934;28;20425;-81
2023/07/29 08:12:19;;;;;;;3.97;3.67;;;;;;;;;;5088734;28;20385;-81
2023/07/29 08:14:45;;;;;;;4.05;3.75;;;;;;;;;;5089571;28;20445;-81
2023/07/29 08:17:11;;;;;;;4.93;4.10;;;;;;;;;;5098183;28;20378;-81
2023/07/29 08:19:37;;;;;;;4.10;3.80;;;;;;;;;;5108660;28;20399;-82
2023/07/29 08:22:04;;;;;;;4.32;3.55;;;;;;;;;;5093423;28;20533;-82
2023/07/29 08:24:30;;;;;;;4.05;3.40;;;;;;;;;;5115432;28;20690;-83
2023/07/29 08:26:56;;;;;;;3.55;3.25;;;;;;;;;;5110816;28;20384;-82
2023/07/29 08:29:22;;;;;;;3.78;3.47;;;;;;;;;;5096657;28;20382;-81
2023/07/29 08:31:48;;;;;;;3.78;3.45;;;;;;;;;;5118573;28;20379;-81
2023/07/29 08:34:14;;;;;;;3.80;3.50;;;;;;;;;;5117167;27;20474;-81
2023/07/29 08:36:40;;;;;;;4.03;3.70;;;;;;;;;;5120549;27;20376;-81
2023/07/29 08:39:06;;;;;;;3.92;3.63;;;;;;;;;;5100441;28;20397;-81
2023/07/29 08:41:41;;;;;;;3.92;3.53;;;;;;;;;;5116064;27;20382;-80
2023/07/29 08:44:12;;;;;;;4.13;3.80;;;;;;;;;;5111371;28;20382;-81
2023/07/29 08:46:40;;;;;;;3.92;3.60;;;;;;;;;;5112380;28;20376;-81
2023/07/29 08:49:06;;;;;;;3.70;3.40;;;;;;;;;;5100955;28;20720;-81
2023/07/29 08:51:32;;;;;;;3.50;3.20;;;;;;;;;;5106077;28;20381;-81
2023/07/29 08:53:59;;;;;;;3.22;3.03;;;;;;;;;;5117254;28;20408;-81
2023/07/29 08:56:26;;;;;;;3.58;3.28;;;;;;;;;;5100163;28;20780;-81
2023/07/29 08:58:53;;;;;;;3.40;3.10;;;;;;;;;;5121478;28;20926;-82
2023/07/29 09:01:19;;;;;;;3.60;3.30;;;;;;;;;;5111709;28;20390;-81
2023/07/29 09:03:45;;;;;;;3.47;3.17;;;;;;;;;;5121265;28;20439;-82
2023/07/29 09:06:11;;;;;;;3.83;3.53;;;;;;;;;;5120687;28;20376;-82
2023/07/29 09:08:37;;;;;;;3.25;2.95;;;;;;;;;;5120203;28;20372;-81
2023/07/29 09:11:03;;;;;;;3.65;3.05;;;;;;;;;;5101523;28;20384;-81
2023/07/29 09:13:30;;;;;;;3.42;3.13;;;;;;;;;;5120549;28;20391;-81
2023/07/29 09:15:57;;;;;;;3.03;2.80;;;;;;;;;;5119637;28;20398;-81
2023/07/29 09:18:24;;;;;;;3.00;2.80;;;;;;;;;;5119371;28;20734;-81
2023/07/29 09:20:50;;;;;;;2.80;2.60;;;;;;;;;;5119859;28;20400;-81
2023/07/29 09:23:16;;;;;;;3.53;2.83;;;;;;;;;;5119204;28;20377;-81
2023/07/29 09:25:43;;;;;;;3.10;2.80;;;;;;;;;;5119273;28;20392;-81
2023/07/29 09:28:10;;;;;;;2.70;2.50;;;;;;;;;;5119042;28;20376;-80
2023/07/29 09:30:36;;;;;;;2.83;2.63;;;;;;;;;;5118607;28;20411;-81
2023/07/29 09:33:02;;;;;;;5.45;2.65;;;;;;;;;;5118481;28;20396;-81
2023/07/29 09:35:33;;;;;;;2.80;2.60;;;;;;;;;;5119025;28;20404;-81
2023/07/29 09:37:59;;;;;;;2.80;2.60;;;;;;;;;;5117214;28;20386;-81
2023/07/29 09:40:25;;;;;;;3.33;2.65;;;;;;;;;;5118257;28;20762;-80
2023/07/29 09:42:52;;;;;;;2.85;2.53;;;;;;;;;;5114866;28;20368;-81
2023/07/29 09:45:21;;;;;;;2.80;2.50;;;;;;;;;;5119031;28;20380;-80
2023/07/29 09:47:48;;;;;;;2.70;2.45;;;;;;;;;;5118404;28;20441;-80
2023/07/29 09:50:14;;;;;;;2.55;2.35;;;;;;;;;;5118254;28;20388;-80
2023/07/29 09:52:40;;;;;;;2.65;2.45;;;;;;;;;;5118052;28;20399;-81
2023/07/29 09:55:07;;;;;;;2.40;2.20;;;;;;;;;;5118940;28;20443;-81
2023/07/29 09:57:33;;;;;;;2.70;2.42;;;;;;;;;;5118457;28;20379;-81
2023/07/29 09:59:59;;;;;;;2.65;2.42;;;;;;;;;;5117590;28;20407;-81
2023/07/29 10:02:28;;;;;;;2.78;2.30;;;;;;;;;;5117813;28;20384;-81
2023/07/29 10:04:55;;;;;;;2.88;2.67;;;;;;;;;;5117782;28;20433;-81
2023/07/29 10:07:21;;;;;;;2.33;2.13;;;;;;;;;;5118160;28;20392;-81
2023/07/29 10:09:48;;;;;;;2.90;2.15;;;;;;;;;;5116587;28;20420;-80
2023/07/29 10:12:14;;;;;;;2.60;2.13;;;;;;;;;;5117981;28;20384;-81
2023/07/29 10:14:41;;;;;;;2.50;2.30;;;;;;;;;;5121950;28;20403;-81
2023/07/29 10:17:07;;;;;;;2.95;2.65;;;;;;;;;;5122987;28;20395;-81
2023/07/29 10:19:33;;;;;;;3.20;2.90;;;;;;;;;;5122791;28;20384;-80
2023/07/29 10:22:01;;;;;;;2.88;2.67;;;;;;;;;;5121058;28;20380;-81
2023/07/29 10:24:30;;;;;;;2.40;2.20;;;;;;;;;;5123545;28;20377;-81
2023/07/29 10:27:00;;;;;;;2.40;2.22;;;;;;;;;;5116167;27;20392;-82
2023/07/29 10:29:32;;;;;;;3.30;2.40;;;;;;;;;;5122738;27;20447;-81
2023/07/29 10:32:02;;;;;;;5.03;2.03;;;;;;;;;;5122183;28;20467;-82
2023/07/29 10:34:28;;;;;;;2.35;2.08;;;;;;;;;;5121726;28;20396;-82
2023/07/29 10:36:54;;;;;;;4.25;2.22;;;;;;;;;;5121814;28;20399;-82
2023/07/29 10:39:20;;;;;;;3.08;2.08;;;;;;;;;;5121654;28;20429;-81
2023/07/29 10:42:02;;;;;;;2.08;1.90;;;;;;;;;;5117512;28;20746;-81
2023/07/29 10:44:43;;;;;;;3.00;2.00;;;;;;;;;;5110620;28;20384;-82
2023/07/29 10:47:16;;;;;;;2.55;2.00;;;;;;;;;;5110825;28;20380;-81
2023/07/29 10:49:42;;;;;;;2.13;2.00;;;;;;;;;;5120974;28;20427;-81
2023/07/29 10:52:12;;;;;;;2.33;2.13;;;;;;;;;;5105000;28;20376;-81
2023/07/29 10:54:48;;;;;;;2.35;1.75;;;;;;;;;;5119005;28;20400;-81
2023/07/29 10:57:30;;;;;;;2.40;1.80;;;;;;;;;;5121437;28;20918;-81
2023/07/29 10:59:57;;;;;;;1.90;1.67;;;;;;;;;;5122894;28;20717;-82
2023/07/29 11:02:29;;;;;;;2.22;2.03;;;;;;;;;;5121160;28;20388;-81
2023/07/29 11:04:55;;;;;;;2.53;2.20;;;;;;;;;;5113176;27;20439;-80
2023/07/29 11:07:23;;;;;;;2.13;1.92;;;;;;;;;;5110636;28;20380;-81
2023/07/29 11:09:49;;;;;;;2.13;1.88;;;;;;;;;;5112512;27;20380;-81
2023/07/29 11:12:34;;;;;;;2.05;1.80;;;;;;;;;;5118422;28;20384;-81
2023/07/29 11:15:04;;;;;;;2.30;1.80;;;;;;;;;;5116969;27;20411;-82
2023/07/29 11:17:34;;;;;;;1.90;1.80;;;;;;;;;;5109874;28;20389;-81
2023/07/29 11:20:01;;;;;;;2.88;1.90;;;;;;;;;;5102707;28;20452;-81
2023/07/29 11:22:28;;;;;;;2.22;1.75;;;;;;;;;;5111040;28;20415;-81
2023/07/29 11:24:54;;;;;;;1.70;1.60;;;;;;;;;;5119905;27;20426;-81
2023/07/29 11:27:20;;;;;;;1.90;1.80;;;;;;;;;;5092588;28;20470;-81
2023/07/29 11:29:47;;;;;;;1.92;1.80;;;;;;;;;;5115492;28;20379;-81
2023/07/29 11:32:13;;;;;;;1.77;1.67;;;;;;;;;;5118502;28;20376;-80
2023/07/29 11:34:42;;;;;;;1.80;1.70;;;;;;;;;;5107806;28;20502;-80
2023/07/29 11:37:12;;;;;;;1.90;1.80;;;;;;;;;;5117539;28;20377;-80
2023/07/29 11:39:40;;;;;;;2.55;1.92;;;;;;;;;;5101768;28;20379;-80
2023/07/29 11:42:07;;;;;;;2.10;2.00;;;;;;;;;;5108547;28;20685;-81
2023/07/29 11:44:33;;;;;;;2.88;1.70;;;;;;;;;;5100756;28;20378;-81
2023/07/29 11:46:59;;;;;;;2.33;1.65;;;;;;;;;;5100702;28;20394;-81
2023/07/29 11:49:25;;;;;;;2.03;1.85;;;;;;;;;;5118641;28;20383;-83
2023/07/29 11:51:51;;;;;;;1.80;1.70;;;;;;;;;;5094611;28;20448;-85
2023/07/29 11:54:21;;;;;;;2.03;1.73;;;;;;;;;;5110044;27;20433;-82
2023/07/29 11:56:47;;;;;;;1.98;1.77;;;;;;;;;;5120951;28;20445;-83
2023/07/29 11:59:13;;;;;;;1.70;1.60;;;;;;;;;;5099050;28;20396;-80
2023/07/29 12:01:39;;;;;;;1.70;1.60;;;;;;;;;;5113567;28;20408;-80
2023/07/29 12:04:05;;;;;;;2.00;1.60;;;;;;;;;;5110347;28;20407;-81
2023/07/29 12:06:33;;;;;;;5.13;4.63;;;;;;;;;;5116420;28;21579;-81
2023/07/29 12:08:59;;;;;;;4.30;2.10;;;;;;;;;;5113841;28;20392;-81
2023/07/29 12:11:25;;;;;;;2.07;1.87;;;;;;;;;;5113850;28;20783;-81
2023/07/29 12:13:53;;;;;;;3.67;2.70;;;;;;;;;;5120233;28;20729;-81
2023/07/29 12:16:19;;;;;;;2.40;2.20;;;;;;;;;;5121338;28;20384;-81
2023/07/29 12:18:45;;;;;;;2.13;1.92;;;;;;;;;;5117054;28;20364;-81
2023/07/29 12:21:14;;;;;;;1.98;1.85;;;;;;;;;;5102649;28;20387;-80
2023/07/29 12:23:40;;;;;;;2.10;1.90;;;;;;;;;;5119497;28;20419;-81
2023/07/29 12:26:06;;;;;;;1.97;1.87;;;;;;;;;;5113908;27;20436;-80
2023/07/29 12:28:32;;;;;;;2.00;1.90;;;;;;;;;;5123058;28;20389;-81
2023/07/29 12:30:58;;;;;;;2.40;2.20;;;;;;;;;;5121634;28;20385;-81
2023/07/29 12:33:41;;;;;;;2.40;2.10;;;;;;;;;;5113461;27;20433;-81
2023/07/29 12:36:08;;;;;;;2.22;1.70;;;;;;;;;;5099876;28;20409;-81
2023/07/29 12:38:34;;;;;;;1.80;1.70;;;;;;;;;;5115543;27;20738;-81
2023/07/29 12:41:00;;;;;;;1.80;1.60;;;;;;;;;;5101261;28;20873;-81
2023/07/29 12:43:26;;;;;;;1.73;1.63;;;;;;;;;;5117542;28;20376;-81
2023/07/29 12:45:52;;;;;;;1.87;1.73;;;;;;;;;;5112828;27;20382;-81
2023/07/29 12:48:18;;;;;;;1.83;1.67;;;;;;;;;;5125797;27;20384;-81
2023/07/29 12:50:44;;;;;;;1.33;1.23;;;;;;;;;;5117760;28;20381;-81
2023/07/29 12:53:11;;;;;;;1.70;1.60;;;;;;;;;;5102499;28;20388;-80
2023/07/29 12:55:37;;;;;;;1.60;1.50;;;;;;;;;;5110121;28;20412;-81
2023/07/29 12:58:03;;;;;;;1.60;1.50;;;;;;;;;;5112764;28;20900;-80
2023/07/29 13:00:32;;;;;;;1.30;1.20;;;;;;;;;;5119742;28;20372;-81
2023/07/29 13:02:58;;;;;;;1.63;1.45;;;;;;;;;;5119361;28;20380;-81
2023/07/29 13:05:24;;;;;;;2.47;1.50;;;;;;;;;;5121108;28;20467;-81
2023/07/29 13:07:50;;;;;;;2.55;1.60;;;;;;;;;;5120730;28;20388;-81
2023/07/29 13:10:16;;;;;;;2.08;1.77;;;;;;;;;;5121075;28;20416;-81
2023/07/29 13:12:42;;;;;;;2.60;1.70;;;;;;;;;;5115828;28;20414;-81
2023/07/29 13:15:08;;;;;;;4.82;1.80;;;;;;;;;;5113801;27;20782;-82
2023/07/29 13:17:34;;;;;;;1.90;1.70;;;;;;;;;;5128318;27;20429;-82
2023/07/29 13:20:00;;;;;;;1.80;1.65;;;;;;;;;;5123446;28;20376;-81
2023/07/29 13:22:26;;;;;;;2.28;1.70;;;;;;;;;;5109296;28;20381;-82
2023/07/29 13:25:08;;;;;;;2.10;1.90;;;;;;;;;;5120475;28;20377;-82
2023/07/29 13:27:34;;;;;;;2.70;1.80;;;;;;;;;;5113416;28;20419;-81
2023/07/29 13:30:00;;;;;;;2.50;1.38;;;;;;;;;;5104999;28;20449;-82
2023/07/29 13:32:26;;;;;;;2.72;1.52;;;;;;;;;;5109828;28;20406;-82
2023/07/29 13:34:52;;;;;;;2.60;1.65;;;;;;;;;;5115737;28;20409;-81
2023/07/29 13:37:18;;;;;;;2.10;1.58;;;;;;;;;;5122320;28;20376;-81
2023/07/29 13:39:44;;;;;;;3.37;1.50;;;;;;;;;;5123646;28;20380;-82
2023/07/29 13:42:10;;;;;;;1.67;1.57;;;;;;;;;;5124626;28;20380;-81
2023/07/29 13:44:36;;;;;;;2.70;1.48;;;;;;;;;;5108095;28;20388;-82
2023/07/29 13:47:02;;;;;;;3.42;1.55;;;;;;;;;;5121569;28;20402;-81
2023/07/29 13:49:28;;;;;;;1.52;1.33;;;;;;;;;;5120830;28;20715;-81
2023/07/29 13:51:54;;;;;;;1.23;1.15;;;;;;;;;;5124663;28;20422;-80
2023/07/29 13:54:21;;;;;;;1.42;1.10;;;;;;;;;;5125919;28;20412;-80
2023/07/29 13:56:47;;;;;;;2.20;1.10;;;;;;;;;;5124335;28;20446;-81
2023/07/29 13:59:13;;;;;;;1.27;1.17;;;;;;;;;;5124475;28;20379;-80
2023/07/29 14:01:39;;;;;;;1.90;1.40;;;;;;;;;;5124550;28;20400;-80
2023/07/29 14:04:05;;;;;;;1.90;1.55;;;;;;;;;;5124539;28;20471;-81
2023/07/29 14:06:31;;;;;;;2.20;1.40;;;;;;;;;;5119823;28;20374;-81
2023/07/29 14:08:57;;;;;;;2.53;1.58;;;;;;;;;;5128332;28;20459;-82
2023/07/29 14:11:23;;;;;;;2.08;1.52;;;;;;;;;;5125346;28;20376;-82
2023/07/29 14:13:49;;;;;;;2.05;1.45;;;;;;;;;;5119736;28;20728;-83
2023/07/29 14:16:15;;;;;;;1.60;1.50;;;;;;;;;;5134259;28;20380;-81
2023/07/29 14:18:41;;;;;;;2.08;1.85;;;;;;;;;;5129090;28;20380;-82
2023/07/29 14:21:07;;;;;;;2.10;1.90;;;;;;;;;;5129607;28;20386;-82
2023/07/29 14:23:33;;;;;;;2.50;2.30;;;;;;;;;;5144170;28;20835;-82
2023/07/29 14:25:59;;;;;;;2.33;2.13;;;;;;;;;;5130385;28;20541;-82
2023/07/29 14:28:25;;;;;;;2.93;2.30;;;;;;;;;;5120596;28;20405;-81
2023/07/29 14:30:51;;;;;;;2.38;2.20;;;;;;;;;;5118483;28;20376;-81
2023/07/29 14:33:17;;;;;;;2.67;2.47;;;;;;;;;;5105436;28;20388;-81
2023/07/29 14:35:43;;;;;;;2.50;2.20;;;;;;;;;;5124283;28;20904;-83
2023/07/29 14:38:09;;;;;;;2.67;2.42;;;;;;;;;;5122605;28;20843;-82
2023/07/29 14:40:35;;;;;;;2.25;2.05;;;;;;;;;;5114834;28;20438;-81